Hensel, ND

4:17 AM CDT on June 29, 2017 (GMT -0500)
North Crystal | | Change Station
Active Advisory: Special Statement

Elev 919 ft 48.62 °N, 97.71 °W | Updated 6 minutes ago

Overcast
Overcast
55.8 °F
Feels Like 55.8 °F
N
0.0
Wind Variable Wind from NNE
Gusts 0.0 mph

Today
High -- | Low -- °F
--% Chance of Precip.
Yesterday
High -- | Low -- °F
Precip. -- in
Pressure 29.72 in
Visibility 0.2 miles
Clouds Overcast 100 ft
Dew Point 55 °F
Humidity 97%
Rainfall 0.00 in
Snow Depth Not available.
5:31 AM 9:37 PM
Waxing Crescent, 33% visible
METAR K2C8 290915Z AUTO 00000KT M1/4SM FG OVC001 13/13 A2972 RMK AO2
Pressure 29.72 in
Visibility 0.2 miles
Clouds Overcast 100 ft
Dew Point 55 °F
Humidity 97%
Rainfall 0.00 in
Snow Depth Not available.
5:31 AM 9:37 PM
Waxing Crescent, 33% visible
METAR K2C8 290915Z AUTO 00000KT M1/4SM FG OVC001 13/13 A2972 RMK AO2

Get Your Daily Forecast Email!

Thanks for signing up!

Be on the lookout for a verification email in your inbox.

You'll start receiving severe weather alerts in your inbox..

×

10-Day Weather Forecast

Almanac

Astronomy

Jun. 29, 2017 Rise Set
Actual Time
Civil Twilight
Nautical Twilight
Astronomical Twilight
Moon
Length of Visible Light
Length of Day
Tomorrow will be .
, % of the Moon is Illuminated

Today's Extremes

State Highs State Lows

Community

WunderPhotos

Category 6

Welcome to Category 6. This is the collective home for Weather Underground's featured writeups by Dr. Jeff Masters (right), Bob Henson (left), Chris Burt, and other regular contributors.

Nearby

Air Quality

  Air Quality AQ Index Pollutant
Not available.

Snow Depth

Station Depth Elevation

Earthquake Activity

City Distance Mag. Time & Date
Minimum magnitude displayed is 2.5.

Coastal Water Temperatures

Place Temperature

Stations

Nearby Weather Stations

Station Location Temp. Windchill Dew Point Humidity Wind Precip. Elev Updated Type
                   

Watches & Warnings

Special Statement
Issued: 2:17 AM CDT Jun. 29, 2017 – National Weather Service

... Areas of dense fog across portions of eastern North Dakota
into the northern Red River valley...

Areas of dense fog occasionally reducing visibility to less than
one quarter mile have developed from Valley City into the northern
Red River valley. Travelers are encouraged to be prepared for the
possibility of rapidly deteriorating visibility, and to use extra
caution at intersections and Railroad crossings. The fog is
expected to improve after sunrise.

Tg